createdAt,value
2019-05-06T00:00:59.595Z,80.80
2019-05-06T00:01:57.655Z,81.21
2019-05-06T00:02:57.670Z,81.32
2019-05-06T00:04:00.657Z,81.32
2019-05-06T00:04:57.623Z,81.52
2019-05-06T00:05:57.616Z,82.04
2019-05-06T00:06:58.113Z,83.18
2019-05-06T00:07:57.587Z,84.31
2019-05-06T00:08:57.583Z,84.83
2019-05-06T00:09:57.567Z,84.94
2019-05-06T00:10:57.550Z,84.94
2019-05-06T00:11:57.550Z,85.24
2019-05-06T00:12:57.531Z,85.45
2019-05-06T00:13:57.521Z,85.45
2019-05-06T00:14:57.508Z,84.94
2019-05-06T00:15:57.499Z,84.36
2019-05-06T00:16:58.786Z,84.15
2019-05-06T00:17:57.478Z,84.05
2019-05-06T00:18:57.467Z,84.25
2019-05-06T00:19:57.456Z,84.36
2019-05-06T00:20:57.714Z,84.56
2019-05-06T00:21:57.435Z,84.87
2019-05-06T00:22:57.416Z,85.28
2019-05-06T00:23:57.413Z,85.49
2019-05-06T00:24:57.416Z,85.60
2019-05-06T00:25:57.394Z,86.11
2019-05-06T00:26:57.829Z,86.42
2019-05-06T00:27:57.366Z,86.73
2019-05-06T00:28:57.354Z,86.94
2019-05-06T00:29:57.348Z,87.25
2019-05-06T00:31:09.349Z,87.66
2019-05-06T00:31:58.333Z,88.01
2019-05-06T00:32:57.310Z,88.32
2019-05-06T00:33:57.320Z,88.64
2019-05-06T00:34:57.317Z,88.74
2019-05-06T00:36:00.224Z,88.94
2019-05-06T00:36:57.271Z,88.94
2019-05-06T00:37:57.269Z,89.15
2019-05-06T00:38:57.256Z,89.25
2019-05-06T00:39:57.248Z,89.15
2019-05-06T00:40:57.228Z,89.15
2019-05-06T00:41:57.221Z,89.25
2019-05-06T00:42:57.226Z,89.36
2019-05-06T00:43:57.198Z,89.46
2019-05-06T00:44:57.186Z,89.56
2019-05-06T00:45:57.185Z,89.71
2019-05-06T00:46:57.165Z,89.61
2019-05-06T00:47:57.183Z,89.56
2019-05-06T00:48:57.152Z,89.71
2019-05-06T00:49:57.132Z,89.50
2019-05-06T00:50:57.123Z,89.71
2019-05-06T00:51:57.114Z,89.61
2019-05-06T00:52:57.102Z,89.40
2019-05-06T00:53:57.105Z,89.09
2019-05-06T00:54:57.093Z,88.88
2019-05-06T00:55:57.071Z,88.57
2019-05-06T00:56:57.060Z,88.16
2019-05-06T00:57:57.051Z,87.85
2019-05-06T00:58:57.039Z,87.33
2019-05-06T00:59:57.040Z,87.12
2019-05-06T01:00:57.019Z,86.91
2019-05-06T01:01:57.008Z,86.71
2019-05-06T01:02:56.997Z,86.29
2019-05-06T01:03:56.976Z,85.78
2019-05-06T01:04:56.984Z,85.11
2019-05-06T01:05:56.975Z,84.91
2019-05-06T01:06:56.956Z,84.39
2019-05-06T01:07:56.945Z,83.77
2019-05-06T01:08:56.943Z,83.67
2019-05-06T01:09:56.922Z,83.25
2019-05-06T01:10:56.923Z,82.95
2019-05-06T01:11:56.903Z,82.84
2019-05-06T01:12:56.892Z,83.25
2019-05-06T01:13:56.886Z,83.84
2019-05-06T01:14:56.863Z,85.18
2019-05-06T01:15:56.890Z,85.18
2019-05-06T01:16:56.850Z,85.49
2019-05-06T01:17:56.853Z,85.60
2019-05-06T01:18:56.828Z,85.60
2019-05-06T01:19:56.818Z,85.49
2019-05-06T01:20:56.808Z,85.28
2019-05-06T01:21:56.817Z,85.35
2019-05-06T01:22:56.787Z,85.35
2019-05-06T01:23:56.769Z,85.45
2019-05-06T01:24:56.766Z,85.45
2019-05-06T01:25:56.755Z,85.24
2019-05-06T01:26:56.768Z,85.24
2019-05-06T01:27:56.727Z,85.14
2019-05-06T01:28:56.714Z,84.94
2019-05-06T01:29:56.703Z,84.73
2019-05-06T01:30:56.701Z,84.63
2019-05-06T01:31:56.713Z,84.31
2019-05-06T01:32:56.672Z,84.11
2019-05-06T01:33:56.662Z,83.59
2019-05-06T01:34:56.660Z,83.07
2019-05-06T01:35:56.651Z,82.97
2019-05-06T01:36:56.660Z,82.66
2019-05-06T01:37:56.621Z,82.04
2019-05-06T01:38:56.611Z,81.84
2019-05-06T01:39:56.599Z,81.52
2019-05-06T01:40:56.599Z,81.18
2019-05-06T01:41:56.608Z,80.97
2019-05-06T01:42:56.571Z,80.87
2019-05-06T01:43:56.559Z,80.66
2019-05-06T01:44:56.547Z,81.07
2019-05-06T01:45:56.538Z,80.87
2019-05-06T01:46:56.546Z,80.04
2019-05-06T01:47:56.515Z,80.04
2019-05-06T01:48:56.504Z,79.83
2019-05-06T01:49:56.496Z,79.63
2019-05-06T01:50:56.492Z,79.73
2019-05-06T01:51:56.483Z,79.83
2019-05-06T01:52:56.464Z,79.94
2019-05-06T01:53:56.453Z,80.04
2019-05-06T01:54:56.443Z,80.25
2019-05-06T01:55:56.431Z,80.25
2019-05-06T01:56:56.420Z,79.83
2019-05-06T01:57:56.433Z,79.63
2019-05-06T01:58:56.400Z,79.42
2019-05-06T01:59:56.389Z,79.22
2019-05-06T02:00:56.381Z,79.11
2019-05-06T02:02:00.827Z,78.91
2019-05-06T02:02:56.370Z,78.70
2019-05-06T02:03:56.347Z,78.91
2019-05-06T02:04:56.338Z,79.01
2019-05-06T02:05:56.326Z,80.04
2019-05-06T02:06:56.338Z,79.83
2019-05-06T02:07:56.318Z,79.83
2019-05-06T02:08:56.297Z,79.73
2019-05-06T02:09:56.295Z,79.63
2019-05-06T02:10:56.274Z,79.42
2019-05-06T02:11:56.896Z,79.32
2019-05-06T02:12:56.280Z,79.83
2019-05-06T02:13:56.255Z,79.52
2019-05-06T02:14:56.231Z,79.63
2019-05-06T02:15:56.222Z,79.52
2019-05-06T02:16:56.214Z,79.42
2019-05-06T02:17:56.223Z,79.01
2019-05-06T02:18:56.192Z,78.70
2019-05-06T02:19:56.173Z,81.07
2019-05-06T02:20:56.179Z,81.07
2019-05-06T02:21:56.159Z,80.76
2019-05-06T02:22:56.160Z,80.46
2019-05-06T02:23:56.137Z,79.90
2019-05-06T02:24:56.120Z,79.83
2019-05-06T02:25:56.108Z,80.11
2019-05-06T02:26:56.099Z,80.62
2019-05-06T02:27:56.105Z,80.42
2019-05-06T02:28:56.087Z,80.21
2019-05-06T02:29:56.065Z,81.56
2019-05-06T02:30:56.066Z,80.42
2019-05-06T02:32:14.767Z,79.90
2019-05-06T02:32:57.048Z,79.69
2019-05-06T02:33:56.206Z,79.80
2019-05-06T02:34:56.035Z,79.49
2019-05-06T02:35:56.004Z,79.38
2019-05-06T02:36:55.994Z,79.59
2019-05-06T02:37:55.981Z,79.73
2019-05-06T02:38:56.141Z,79.80
2019-05-06T02:39:55.986Z,80.04
2019-05-06T02:40:55.955Z,80.25
2019-05-06T02:41:55.945Z,80.56
2019-05-06T02:42:55.934Z,80.66
2019-05-06T02:43:55.931Z,80.66
2019-05-06T02:44:55.946Z,80.87
2019-05-06T02:45:55.900Z,81.38
2019-05-06T02:46:55.897Z,81.28
2019-05-06T02:47:55.878Z,81.49
2019-05-06T02:48:55.868Z,81.24
2019-05-06T02:49:55.879Z,81.35
2019-05-06T02:50:55.851Z,81.45
2019-05-06T02:51:55.838Z,81.49
2019-05-06T02:52:55.826Z,81.59
2019-05-06T02:53:55.827Z,81.28
2019-05-06T02:54:55.803Z,81.18
2019-05-06T02:55:55.801Z,80.76
2019-05-06T02:56:55.786Z,80.66
2019-05-06T02:57:55.766Z,80.76
2019-05-06T02:58:55.788Z,80.87
2019-05-06T02:59:55.900Z,80.87
2019-05-06T03:00:55.740Z,80.87
2019-05-06T03:01:55.743Z,81.18
2019-05-06T03:02:55.722Z,81.01
2019-05-06T03:03:55.710Z,81.21
2019-05-06T03:04:55.710Z,81.42
2019-05-06T03:05:55.702Z,81.84
2019-05-06T03:06:55.679Z,82.76
2019-05-06T03:07:57.569Z,83.39
2019-05-06T03:08:55.648Z,83.59
2019-05-06T03:09:55.695Z,83.94
2019-05-06T03:10:55.641Z,84.05
2019-05-06T03:11:55.619Z,84.15
2019-05-06T03:12:55.614Z,84.15
2019-05-06T03:13:55.606Z,83.94
2019-05-06T03:14:55.588Z,83.87
2019-05-06T03:15:55.586Z,83.77
2019-05-06T03:16:55.567Z,83.87
2019-05-06T03:17:55.651Z,83.87
2019-05-06T03:18:55.547Z,83.98
2019-05-06T03:19:55.535Z,84.08
2019-05-06T03:20:55.537Z,83.98
2019-05-06T03:21:55.523Z,83.67
2019-05-06T03:22:55.524Z,83.05
2019-05-06T03:23:55.516Z,82.74
2019-05-06T03:24:55.491Z,82.53
2019-05-06T03:25:55.474Z,82.36
2019-05-06T03:26:57.025Z,82.01
2019-05-06T03:27:55.454Z,82.12
2019-05-06T03:28:55.469Z,82.12
2019-05-06T03:29:55.430Z,81.70
2019-05-06T03:30:56.888Z,81.49
2019-05-06T03:31:56.828Z,81.39
2019-05-06T03:33:31.963Z,81.19
2019-05-06T03:34:21.740Z,80.98
2019-05-06T03:35:23.827Z,81.09
2019-05-06T03:36:07.066Z,80.88
2019-05-06T03:36:57.069Z,81.29
2019-05-06T03:37:55.347Z,81.33
2019-05-06T03:38:55.364Z,81.64
2019-05-06T03:39:55.342Z,81.19
2019-05-06T03:40:55.328Z,80.81
2019-05-06T03:41:55.303Z,80.91
2019-05-06T03:42:55.293Z,80.81
2019-05-06T03:43:55.292Z,81.02
2019-05-06T03:44:55.282Z,79.94
2019-05-06T03:45:55.263Z,79.84
2019-05-06T03:46:55.274Z,79.74
2019-05-06T03:47:55.238Z,79.22
2019-05-06T03:48:55.240Z,79.02
2019-05-06T03:49:55.219Z,78.60
2019-05-06T03:50:56.085Z,78.19
2019-05-06T03:51:56.478Z,78.19
2019-05-06T03:52:56.415Z,78.39
2019-05-06T03:53:56.723Z,78.50
2019-05-06T03:54:55.192Z,79.02
2019-05-06T03:55:55.167Z,78.70
2019-05-06T03:56:55.139Z,78.19
2019-05-06T03:57:55.134Z,78.19
2019-05-06T03:58:55.139Z,77.15
2019-05-06T03:59:55.125Z,76.50
2019-05-06T04:00:55.138Z,76.60
2019-05-06T04:01:55.102Z,76.18
2019-05-06T04:02:55.097Z,76.09
2019-05-06T04:03:57.275Z,75.98
2019-05-06T04:04:56.762Z,75.57
2019-05-06T04:05:55.979Z,75.36
2019-05-06T04:06:55.053Z,75.78
2019-05-06T04:07:55.028Z,75.15
2019-05-06T04:08:55.059Z,74.43
2019-05-06T04:09:56.486Z,74.53
2019-05-06T04:10:55.039Z,73.77
2019-05-06T04:11:54.980Z,73.88
2019-05-06T04:12:54.978Z,73.67
2019-05-06T04:13:54.987Z,73.26
2019-05-06T04:14:54.981Z,73.05
2019-05-06T04:15:54.946Z,73.16
2019-05-06T04:16:55.442Z,73.36
2019-05-06T04:17:54.917Z,72.64
2019-05-06T04:18:54.935Z,72.95
2019-05-06T04:19:54.898Z,72.64
2019-05-06T04:20:54.886Z,72.22
2019-05-06T04:21:54.897Z,72.33
2019-05-06T04:22:54.866Z,71.92
2019-05-06T04:23:54.878Z,72.12
2019-05-06T04:24:54.850Z,71.92
2019-05-06T04:25:54.831Z,71.40
2019-05-06T04:26:54.835Z,71.19
2019-05-06T04:27:54.812Z,71.40
2019-05-06T04:28:54.820Z,71.09
2019-05-06T04:29:54.801Z,70.95
2019-05-06T04:30:55.110Z,70.54
2019-05-06T04:31:54.769Z,71.88
2019-05-06T04:32:54.770Z,71.06
2019-05-06T04:34:08.742Z,71.37
2019-05-06T04:34:55.740Z,71.37
2019-05-06T04:35:54.737Z,71.37
2019-05-06T04:36:54.718Z,71.88
2019-05-06T04:37:54.707Z,71.57
2019-05-06T04:38:54.716Z,71.47
2019-05-06T04:39:54.686Z,71.57
2019-05-06T04:40:54.675Z,71.88
2019-05-06T04:41:54.676Z,71.78
2019-05-06T04:42:54.655Z,72.50
2019-05-06T04:43:54.666Z,72.47
2019-05-06T04:44:54.625Z,72.06
2019-05-06T04:45:54.632Z,70.30
2019-05-06T04:46:54.725Z,69.99
2019-05-06T04:47:54.593Z,70.20
2019-05-06T04:48:54.597Z,70.20
2019-05-06T04:49:54.574Z,69.75
2019-05-06T04:50:54.573Z,69.34
2019-05-06T04:51:54.550Z,69.24
2019-05-06T04:52:54.548Z,69.54
2019-05-06T04:53:54.561Z,69.44
2019-05-06T04:54:54.539Z,69.44
2019-05-06T04:55:54.529Z,69.24
2019-05-06T04:56:54.510Z,69.03
2019-05-06T04:57:54.495Z,69.10
2019-05-06T04:58:54.496Z,69.00
2019-05-06T04:59:54.477Z,69.51
2019-05-06T05:00:54.465Z,70.13
2019-05-06T05:01:54.454Z,70.23
2019-05-06T05:02:54.985Z,70.13
2019-05-06T05:03:54.437Z,70.65
2019-05-06T05:04:54.426Z,70.41
2019-05-06T05:05:54.405Z,70.44
2019-05-06T05:06:54.424Z,70.41
2019-05-06T05:07:54.393Z,70.20
2019-05-06T05:08:54.373Z,70.72
2019-05-06T05:09:54.362Z,71.03
2019-05-06T05:10:54.351Z,71.95
2019-05-06T05:11:54.351Z,73.09
2019-05-06T05:12:54.330Z,72.88
2019-05-06T05:13:54.320Z,72.54
2019-05-06T05:14:54.320Z,71.61
2019-05-06T05:15:54.299Z,71.00
2019-05-06T05:16:54.299Z,70.89
2019-05-06T05:17:54.278Z,70.58
2019-05-06T05:18:54.274Z,70.48
2019-05-06T05:19:54.256Z,70.48
2019-05-06T05:20:54.267Z,69.93
2019-05-06T05:21:54.235Z,69.52
2019-05-06T05:22:54.227Z,69.42
2019-05-06T05:23:54.215Z,69.52
2019-05-06T05:24:54.205Z,69.52
2019-05-06T05:25:54.225Z,69.62
2019-05-06T05:26:54.187Z,69.42
2019-05-06T05:27:54.174Z,70.04
2019-05-06T05:28:54.176Z,70.14
2019-05-06T05:29:54.152Z,69.28
2019-05-06T05:30:54.133Z,69.49
2019-05-06T05:31:54.131Z,69.62
2019-05-06T05:32:54.131Z,69.73
2019-05-06T05:33:54.112Z,69.73
2019-05-06T05:34:54.099Z,70.04
2019-05-06T05:35:54.090Z,70.55
2019-05-06T05:36:54.081Z,70.86
2019-05-06T05:37:54.070Z,69.07
2019-05-06T05:38:54.073Z,67.75
2019-05-06T05:39:54.057Z,65.69
2019-05-06T05:40:54.027Z,65.17
2019-05-06T05:41:54.029Z,63.69
2019-05-06T05:42:54.016Z,60.49
2019-05-06T05:43:54.005Z,60.82
2019-05-06T05:44:53.987Z,61.87
2019-05-06T05:45:54.006Z,62.73
2019-05-06T05:46:53.966Z,63.57
2019-05-06T05:47:53.956Z,63.91
2019-05-06T05:48:53.952Z,64.88
2019-05-06T05:49:53.935Z,61.30
2019-05-06T05:50:53.954Z,59.20
2019-05-06T05:51:53.934Z,53.47
2019-05-06T05:52:53.902Z,46.98
2019-05-06T05:53:53.892Z,43.41
2019-05-06T05:54:55.561Z,40.08
2019-05-06T05:55:53.880Z,37.78
2019-05-06T05:56:53.871Z,36.02
2019-05-06T05:57:53.851Z,35.16
2019-05-06T05:58:53.850Z,33.42
2019-05-06T05:59:53.821Z,33.02
2019-05-06T06:00:53.881Z,32.59
2019-05-06T06:01:53.818Z,32.29
2019-05-06T06:02:53.798Z,32.39
2019-05-06T06:03:53.791Z,34.04
2019-05-06T06:04:57.441Z,33.83
2019-05-06T06:05:53.778Z,33.19
2019-05-06T06:06:53.758Z,32.76
2019-05-06T06:07:53.747Z,32.15
2019-05-06T06:08:53.735Z,31.94
2019-05-06T06:09:53.728Z,31.24
2019-05-06T06:10:53.710Z,30.52
2019-05-06T06:11:53.726Z,30.10
2019-05-06T06:12:53.699Z,30.19
2019-05-06T06:13:53.678Z,29.88
2019-05-06T06:14:56.113Z,29.36
2019-05-06T06:15:53.666Z,29.55
2019-05-06T06:16:53.655Z,28.42
2019-05-06T06:17:53.635Z,28.44
2019-05-06T06:18:53.625Z,29.54
2019-05-06T06:19:53.625Z,30.27
2019-05-06T06:20:53.606Z,34.27
2019-05-06T06:21:53.595Z,39.40
2019-05-06T06:22:53.593Z,44.73
2019-05-06T06:23:54.413Z,48.16
2019-05-06T06:24:53.562Z,50.59
2019-05-06T06:25:53.573Z,53.09
2019-05-06T06:26:53.559Z,54.90
2019-05-06T06:27:53.534Z,56.45
2019-05-06T06:28:53.555Z,55.66
2019-05-06T06:29:53.513Z,57.22
2019-05-06T06:30:53.511Z,58.48
2019-05-06T06:31:53.500Z,59.01
2019-05-06T06:32:53.494Z,59.94
2019-05-06T06:33:53.463Z,61.50
2019-05-06T06:35:07.449Z,61.09
2019-05-06T06:35:54.606Z,61.22
2019-05-06T06:36:53.435Z,61.01
2019-05-06T06:37:53.431Z,61.55
2019-05-06T06:38:53.419Z,62.17
2019-05-06T06:39:53.440Z,63.40
2019-05-06T06:40:55.551Z,63.40
2019-05-06T06:41:53.437Z,63.81
2019-05-06T06:42:53.389Z,62.78
2019-05-06T06:43:53.367Z,62.99
2019-05-06T06:44:53.367Z,63.29
2019-05-06T06:45:53.339Z,64.12
2019-05-06T06:46:53.371Z,62.68
2019-05-06T06:47:53.326Z,63.20
2019-05-06T06:48:53.305Z,63.40
2019-05-06T06:49:53.566Z,63.40
2019-05-06T06:50:53.284Z,63.91
2019-05-06T06:51:53.340Z,63.60
2019-05-06T06:52:53.987Z,63.70
2019-05-06T06:53:53.255Z,64.22
2019-05-06T06:54:53.253Z,64.01
2019-05-06T06:55:53.254Z,64.42
2019-05-06T06:57:05.648Z,64.22
2019-05-06T06:57:54.254Z,64.62
2019-05-06T06:58:53.263Z,64.42
2019-05-06T06:59:53.208Z,65.34
2019-05-06T07:00:53.409Z,65.34
2019-05-06T07:01:53.194Z,66.60
2019-05-06T07:02:53.191Z,66.09
2019-05-06T07:03:53.249Z,65.78
2019-05-06T07:04:53.139Z,66.74
2019-05-06T07:05:53.135Z,66.94
2019-05-06T07:06:53.347Z,67.14
2019-05-06T07:07:53.291Z,67.46
2019-05-06T07:08:53.127Z,67.97
2019-05-06T07:09:53.220Z,68.17
2019-05-06T07:10:53.075Z,68.89
2019-05-06T07:11:53.068Z,68.89
2019-05-06T07:12:53.305Z,68.55
2019-05-06T07:13:53.153Z,68.04
2019-05-06T07:14:53.026Z,67.73
2019-05-06T07:15:53.029Z,67.73
2019-05-06T07:16:53.407Z,68.01
2019-05-06T07:17:53.004Z,67.70
2019-05-06T07:18:53.170Z,67.08
2019-05-06T07:19:52.996Z,67.08
2019-05-06T07:20:53.004Z,67.05
2019-05-06T07:21:52.955Z,66.95
2019-05-06T07:22:53.069Z,67.36
2019-05-06T07:23:53.084Z,66.54
2019-05-06T07:24:52.924Z,67.05
2019-05-06T07:25:53.713Z,66.54
2019-05-06T07:26:52.904Z,66.75
2019-05-06T07:27:53.014Z,66.75
2019-05-06T07:28:52.883Z,66.54
2019-05-06T07:29:52.874Z,66.95
2019-05-06T07:30:52.901Z,67.16
2019-05-06T07:31:53.476Z,67.26
2019-05-06T07:32:53.361Z,67.46
2019-05-06T07:33:52.873Z,67.87
2019-05-06T07:34:53.279Z,67.97
2019-05-06T07:35:53.233Z,68.08
2019-05-06T07:36:53.345Z,68.08
2019-05-06T07:37:53.077Z,68.08
2019-05-06T07:38:53.086Z,67.87
2019-05-06T07:39:53.103Z,66.64
2019-05-06T07:40:53.018Z,66.10
2019-05-06T07:41:53.501Z,66.00
2019-05-06T07:42:52.754Z,66.20
2019-05-06T07:43:52.746Z,66.72
2019-05-06T07:44:53.029Z,66.31
2019-05-06T07:45:53.168Z,66.10
2019-05-06T07:46:52.706Z,66.44
2019-05-06T07:47:53.216Z,67.05
2019-05-06T07:48:52.666Z,66.85
2019-05-06T07:49:53.250Z,67.05
2019-05-06T07:50:52.651Z,66.85
2019-05-06T07:51:53.057Z,66.92
2019-05-06T07:52:52.823Z,66.41
2019-05-06T07:53:52.628Z,66.31
2019-05-06T07:54:53.315Z,66.17
2019-05-06T07:55:52.593Z,66.17
2019-05-06T07:56:52.781Z,65.77
2019-05-06T07:57:52.612Z,65.97
2019-05-06T07:58:52.947Z,65.77
2019-05-06T07:59:52.707Z,65.66
2019-05-06T08:00:53.996Z,65.77
2019-05-06T08:01:54.028Z,65.66
2019-05-06T08:02:52.531Z,65.77
2019-05-06T08:03:53.265Z,65.66
2019-05-06T08:04:53.187Z,65.77
2019-05-06T08:05:58.240Z,65.77
2019-05-06T08:06:53.480Z,66.51
2019-05-06T08:07:55.073Z,65.59
2019-05-06T08:08:53.798Z,64.87
2019-05-06T08:09:53.008Z,64.57
2019-05-06T08:10:52.746Z,64.98
2019-05-06T08:11:53.022Z,64.77
2019-05-06T08:12:52.739Z,65.18
2019-05-06T08:13:52.826Z,64.06
2019-05-06T08:14:52.606Z,64.64
2019-05-06T08:15:53.363Z,64.74
2019-05-06T08:16:53.185Z,65.56
2019-05-06T08:17:52.528Z,64.84
2019-05-06T08:18:52.582Z,63.82
2019-05-06T08:19:52.950Z,63.62
2019-05-06T08:20:52.321Z,63.10
2019-05-06T08:21:52.321Z,63.82
2019-05-06T08:22:53.697Z,63.82
2019-05-06T08:23:52.369Z,63.28
2019-05-06T08:24:53.176Z,63.48
2019-05-06T08:25:54.345Z,63.59
2019-05-06T08:26:53.265Z,63.39
2019-05-06T08:27:53.241Z,63.41
2019-05-06T08:28:52.812Z,62.36
2019-05-06T08:29:52.607Z,62.66
2019-05-06T08:30:53.595Z,62.77
2019-05-06T08:31:52.493Z,62.66
2019-05-06T08:32:52.882Z,63.07
2019-05-06T08:33:52.659Z,62.66
2019-05-06T08:34:52.443Z,62.63
2019-05-06T08:35:53.301Z,62.95
2019-05-06T08:36:53.399Z,63.04
2019-05-06T08:37:53.114Z,63.76
2019-05-06T08:38:53.202Z,63.22
2019-05-06T08:39:52.702Z,62.92
2019-05-06T08:40:52.645Z,62.51
2019-05-06T08:41:52.868Z,63.04
2019-05-06T08:42:53.201Z,62.92
2019-05-06T08:43:52.833Z,63.12
2019-05-06T08:44:53.034Z,63.12
2019-05-06T08:45:52.814Z,63.15
2019-05-06T08:46:53.304Z,63.45
2019-05-06T08:47:52.357Z,63.96
2019-05-06T08:48:52.579Z,63.56
2019-05-06T08:49:52.749Z,63.04
2019-05-06T08:50:52.875Z,62.84
2019-05-06T08:51:53.105Z,62.51
2019-05-06T08:52:52.427Z,62.20
2019-05-06T08:53:53.373Z,61.58
2019-05-06T08:54:52.686Z,61.90
2019-05-06T08:55:52.911Z,62.10
2019-05-06T08:56:52.409Z,62.07
2019-05-06T08:57:53.195Z,61.53
2019-05-06T08:58:52.776Z,60.78
2019-05-06T08:59:53.631Z,59.64
2019-05-06T09:00:53.727Z,59.10
2019-05-06T09:01:53.362Z,58.59
2019-05-06T09:02:53.044Z,57.72
2019-05-06T09:04:06.384Z,56.50
2019-05-06T09:04:52.862Z,56.40
2019-05-06T09:05:52.952Z,57.65
2019-05-06T09:06:53.438Z,56.93
2019-05-06T09:07:52.380Z,56.73
2019-05-06T09:08:52.199Z,57.65
2019-05-06T09:09:52.710Z,56.76
2019-05-06T09:10:52.177Z,57.60
2019-05-06T09:11:53.461Z,58.23
2019-05-06T09:12:52.518Z,57.62
2019-05-06T09:13:52.233Z,58.06
2019-05-06T09:14:53.241Z,57.12
2019-05-06T09:15:52.545Z,57.39
2019-05-06T09:16:53.997Z,55.94
2019-05-06T09:17:52.643Z,55.51
2019-05-06T09:18:53.372Z,54.57
2019-05-06T09:19:53.407Z,54.24
2019-05-06T09:20:53.602Z,53.06
2019-05-06T09:21:53.278Z,52.45
2019-05-06T09:22:52.144Z,52.89
2019-05-06T09:23:53.133Z,53.90
2019-05-06T09:24:53.119Z,54.74
2019-05-06T09:25:53.185Z,54.21
2019-05-06T09:26:52.224Z,53.09
2019-05-06T09:27:52.677Z,53.70
2019-05-06T09:28:53.133Z,53.50
2019-05-06T09:29:52.230Z,53.70
2019-05-06T09:30:52.518Z,53.02
2019-05-06T09:31:52.244Z,53.57
2019-05-06T09:32:52.110Z,55.56
2019-05-06T09:33:53.080Z,56.91
2019-05-06T09:34:52.809Z,57.45
2019-05-06T09:35:52.879Z,58.06
2019-05-06T09:36:54.468Z,58.70
2019-05-06T09:37:53.454Z,59.03
2019-05-06T09:38:53.035Z,58.93
2019-05-06T09:39:53.416Z,59.67
2019-05-06T09:40:52.512Z,60.21
2019-05-06T09:41:57.760Z,61.24
2019-05-06T09:42:52.463Z,62.80
2019-05-06T09:43:52.841Z,64.16
2019-05-06T09:44:54.236Z,64.87
2019-05-06T09:45:52.980Z,65.69
2019-05-06T09:46:53.136Z,66.10
2019-05-06T09:47:53.017Z,66.51
2019-05-06T09:48:52.745Z,67.02
2019-05-06T09:49:53.133Z,65.90
2019-05-06T09:50:53.562Z,66.44
2019-05-06T09:51:52.892Z,67.57
2019-05-06T09:52:52.864Z,68.18
2019-05-06T09:53:53.063Z,68.79
2019-05-06T09:54:53.487Z,68.59
2019-05-06T09:55:52.260Z,68.28
2019-05-06T09:56:53.311Z,69.10
2019-05-06T09:57:52.248Z,69.51
2019-05-06T09:58:52.985Z,69.41
2019-05-06T09:59:52.676Z,69.68
2019-05-06T10:00:51.267Z,69.27
2019-05-06T10:01:52.911Z,68.01
2019-05-06T10:02:52.741Z,68.08
2019-05-06T10:03:52.941Z,67.54
2019-05-06T10:04:52.255Z,66.80
2019-05-06T10:05:53.068Z,65.77
2019-05-06T10:06:57.313Z,64.34
2019-05-06T10:07:53.096Z,63.43
2019-05-06T10:08:51.220Z,63.53
2019-05-06T10:09:52.677Z,63.70
2019-05-06T10:10:56.812Z,63.49
2019-05-06T10:11:52.553Z,63.26
2019-05-06T10:12:53.022Z,62.96
2019-05-06T10:13:52.459Z,62.88
2019-05-06T10:14:53.193Z,62.99
2019-05-06T10:15:52.062Z,62.88
2019-05-06T10:16:52.385Z,63.19
2019-05-06T10:17:52.095Z,63.70
2019-05-06T10:18:52.418Z,64.31
2019-05-06T10:19:51.053Z,63.90
2019-05-06T10:20:51.063Z,62.76
2019-05-06T10:21:52.990Z,61.94
2019-05-06T10:22:52.389Z,62.04
2019-05-06T10:23:52.853Z,62.14
2019-05-06T10:24:52.254Z,61.80
2019-05-06T10:25:52.321Z,60.99
2019-05-06T10:26:52.329Z,60.86
2019-05-06T10:27:52.493Z,59.74
2019-05-06T10:28:52.366Z,59.23
2019-05-06T10:29:52.179Z,58.85
2019-05-06T10:30:50.945Z,59.46
2019-05-06T10:31:52.425Z,59.46
2019-05-06T10:32:52.871Z,59.77
2019-05-06T10:33:53.110Z,60.21
2019-05-06T10:34:52.653Z,59.59
2019-05-06T10:35:52.885Z,58.87
2019-05-06T10:36:53.188Z,58.19
2019-05-06T10:37:52.614Z,57.48
2019-05-06T10:38:52.748Z,58.09
2019-05-06T10:39:52.201Z,57.07
2019-05-06T10:41:00.856Z,57.65
2019-05-06T10:41:51.841Z,57.96
2019-05-06T10:42:52.305Z,58.85
2019-05-06T10:43:52.572Z,59.46
2019-05-06T10:44:52.986Z,58.34
2019-05-06T10:45:52.049Z,56.10
2019-05-06T10:46:52.811Z,55.97
2019-05-06T10:47:50.775Z,55.97
2019-05-06T10:48:52.567Z,56.55
2019-05-06T10:49:52.884Z,55.43
2019-05-06T10:50:52.056Z,55.22
2019-05-06T10:51:52.870Z,54.72
2019-05-06T10:52:51.826Z,54.82
2019-05-06T10:53:50.681Z,55.13
2019-05-06T10:54:50.681Z,55.43
2019-05-06T10:55:53.344Z,55.13
2019-05-06T10:56:54.641Z,55.41
2019-05-06T10:57:53.101Z,55.61
2019-05-06T10:58:52.695Z,56.04
2019-05-06T10:59:50.639Z,55.74
2019-05-06T11:00:52.770Z,55.84
2019-05-06T11:01:50.607Z,55.94
2019-05-06T11:02:52.383Z,55.43
2019-05-06T11:03:52.404Z,54.11
2019-05-06T11:04:52.827Z,55.15
2019-05-06T11:05:53.117Z,55.66
2019-05-06T11:06:52.454Z,55.97
2019-05-06T11:07:52.143Z,56.37
2019-05-06T11:08:52.390Z,56.88
2019-05-06T11:09:53.098Z,57.73
2019-05-06T11:10:53.181Z,58.23
2019-05-06T11:11:50.494Z,58.75
2019-05-06T11:12:52.295Z,58.75
2019-05-06T11:13:52.239Z,58.51
2019-05-06T11:14:53.267Z,58.31
2019-05-06T11:15:55.066Z,57.78
2019-05-06T11:16:50.444Z,57.70
2019-05-06T11:17:50.443Z,57.19
2019-05-06T11:18:50.423Z,57.12
2019-05-06T11:19:50.422Z,57.29
2019-05-06T11:20:53.027Z,57.50
2019-05-06T11:21:53.166Z,57.37
2019-05-06T11:22:52.717Z,57.17
2019-05-06T11:23:52.472Z,56.24
2019-05-06T11:24:50.381Z,56.04
2019-05-06T11:25:52.481Z,56.55
2019-05-06T11:26:53.340Z,57.70
2019-05-06T11:27:52.634Z,58.31
2019-05-06T11:28:52.121Z,58.41
2019-05-06T11:29:52.914Z,58.72
2019-05-06T11:30:50.322Z,58.41
2019-05-06T11:31:50.287Z,58.49
2019-05-06T11:32:51.027Z,58.36
2019-05-06T11:33:52.454Z,57.04
2019-05-06T11:34:52.446Z,56.52
2019-05-06T11:35:52.550Z,56.42
2019-05-06T11:36:52.344Z,56.42
2019-05-06T11:37:53.897Z,56.12
2019-05-06T11:38:52.161Z,55.43
2019-05-06T11:39:52.647Z,55.43
2019-05-06T11:40:52.664Z,55.43
2019-05-06T11:42:06.190Z,55.43
2019-05-06T11:42:52.533Z,55.81
2019-05-06T11:43:52.109Z,55.81
2019-05-06T11:44:52.878Z,55.20
2019-05-06T11:45:52.085Z,55.20
2019-05-06T11:46:52.194Z,54.28
2019-05-06T11:47:55.419Z,54.18
2019-05-06T11:48:52.244Z,54.39
2019-05-06T11:49:53.157Z,53.06
2019-05-06T11:50:51.100Z,52.33
2019-05-06T11:51:50.071Z,51.81
2019-05-06T11:52:50.067Z,51.20
2019-05-06T11:53:53.908Z,51.13
2019-05-06T11:54:50.041Z,51.43
2019-05-06T11:55:50.099Z,51.76
2019-05-06T11:56:54.371Z,51.97
2019-05-06T11:57:52.967Z,52.27
2019-05-06T11:58:50.026Z,52.07
2019-05-06T11:59:52.571Z,51.46
2019-05-06T12:00:49.976Z,50.74
2019-05-06T12:01:49.977Z,50.34
2019-05-06T12:02:49.979Z,50.44
2019-05-06T12:03:52.048Z,51.13
2019-05-06T12:04:49.965Z,51.33
2019-05-06T12:05:49.953Z,51.13
2019-05-06T12:06:52.430Z,51.31
2019-05-06T12:08:01.836Z,51.10
2019-05-06T12:08:52.488Z,50.92
2019-05-06T12:09:49.902Z,51.53
2019-05-06T12:10:51.542Z,51.61
2019-05-06T12:11:52.629Z,51.08
2019-05-06T12:12:49.901Z,49.94
2019-05-06T12:13:49.914Z,49.40
2019-05-06T12:14:52.486Z,48.80
2019-05-06T12:15:49.820Z,48.00
2019-05-06T12:16:54.230Z,47.92
2019-05-06T12:17:49.790Z,49.15
2019-05-06T12:18:49.803Z,48.43
2019-05-06T12:19:49.799Z,48.25
2019-05-06T12:20:52.581Z,47.85
2019-05-06T12:21:49.781Z,48.46
2019-05-06T12:22:49.748Z,48.58
2019-05-06T12:23:49.761Z,48.46
2019-05-06T12:24:49.739Z,47.52
2019-05-06T12:25:49.817Z,47.31
2019-05-06T12:26:49.700Z,47.09
2019-05-06T12:27:49.687Z,46.07
2019-05-06T12:28:49.703Z,45.46
2019-05-06T12:29:49.667Z,45.26
2019-05-06T12:30:52.250Z,44.95
2019-05-06T12:31:49.650Z,44.87
2019-05-06T12:32:49.671Z,45.48
2019-05-06T12:33:49.625Z,45.68
2019-05-06T12:34:49.617Z,44.77
2019-05-06T12:35:49.611Z,44.97
2019-05-06T12:36:52.591Z,45.97
2019-05-06T12:37:49.593Z,46.05
2019-05-06T12:38:49.564Z,46.45
2019-05-06T12:39:49.568Z,47.37
2019-05-06T12:40:49.570Z,47.37
2019-05-06T12:41:49.534Z,47.67
2019-05-06T12:42:49.533Z,47.60
2019-05-06T12:43:49.520Z,47.60
2019-05-06T12:44:49.511Z,48.23
2019-05-06T12:45:49.510Z,48.96
2019-05-06T12:46:49.481Z,49.29
2019-05-06T12:47:49.471Z,49.40
2019-05-06T12:48:49.476Z,49.50
2019-05-06T12:49:49.469Z,49.40
2019-05-06T12:50:49.465Z,49.80
2019-05-06T12:51:49.432Z,49.80
2019-05-06T12:52:49.437Z,49.70